sensor_id;sensor_type;location;lat;lon;timestamp;P1;durP1;ratioP1;P2;durP2;ratioP2
78718;SDS011;68046;53.334;9.538;2023-12-20T00:01:00;2.58;;;1.15;;
78718;SDS011;68046;53.334;9.538;2023-12-20T00:03:26;5.95;;;1.23;;
78718;SDS011;68046;53.334;9.538;2023-12-20T00:05:51;10.18;;;1.48;;
78718;SDS011;68046;53.334;9.538;2023-12-20T00:08:17;7.45;;;2.00;;
78718;SDS011;68046;53.334;9.538;2023-12-20T00:10:44;5.20;;;1.30;;
78718;SDS011;68046;53.334;9.538;2023-12-20T00:13:09;16.02;;;2.55;;
78718;SDS011;68046;53.334;9.538;2023-12-20T00:15:35;8.88;;;1.95;;
78718;SDS011;68046;53.334;9.538;2023-12-20T00:18:01;6.93;;;1.42;;
78718;SDS011;68046;53.334;9.538;2023-12-20T00:20:26;7.80;;;2.67;;
78718;SDS011;68046;53.334;9.538;2023-12-20T00:22:54;11.38;;;2.00;;
78718;SDS011;68046;53.334;9.538;2023-12-20T00:25:21;10.93;;;1.75;;
78718;SDS011;68046;53.334;9.538;2023-12-20T00:27:48;6.10;;;1.67;;
78718;SDS011;68046;53.334;9.538;2023-12-20T00:30:14;13.38;;;2.70;;
78718;SDS011;68046;53.334;9.538;2023-12-20T00:32:39;5.65;;;1.30;;
78718;SDS011;68046;53.334;9.538;2023-12-20T00:35:05;12.10;;;2.05;;
78718;SDS011;68046;53.334;9.538;2023-12-20T00:37:31;11.00;;;1.80;;
78718;SDS011;68046;53.334;9.538;2023-12-20T00:39:57;13.38;;;1.63;;
78718;SDS011;68046;53.334;9.538;2023-12-20T00:42:22;3.40;;;1.50;;
78718;SDS011;68046;53.334;9.538;2023-12-20T00:44:49;8.00;;;1.60;;
78718;SDS011;68046;53.334;9.538;2023-12-20T00:47:15;8.13;;;1.45;;
78718;SDS011;68046;53.334;9.538;2023-12-20T00:49:40;9.10;;;1.40;;
78718;SDS011;68046;53.334;9.538;2023-12-20T00:52:06;11.60;;;2.20;;
78718;SDS011;68046;53.334;9.538;2023-12-20T00:54:32;3.80;;;1.40;;
78718;SDS011;68046;53.334;9.538;2023-12-20T00:56:57;6.25;;;2.10;;
78718;SDS011;68046;53.334;9.538;2023-12-20T00:59:23;6.25;;;1.75;;
78718;SDS011;68046;53.334;9.538;2023-12-20T01:01:50;3.55;;;1.38;;
78718;SDS011;68046;53.334;9.538;2023-12-20T01:04:15;5.25;;;1.83;;
78718;SDS011;68046;53.334;9.538;2023-12-20T01:06:41;15.55;;;3.35;;
78718;SDS011;68046;53.334;9.538;2023-12-20T01:09:06;14.30;;;2.30;;
78718;SDS011;68046;53.334;9.538;2023-12-20T01:11:32;5.95;;;2.00;;
78718;SDS011;68046;53.334;9.538;2023-12-20T01:13:57;11.02;;;1.83;;
78718;SDS011;68046;53.334;9.538;2023-12-20T01:16:23;7.05;;;1.88;;
78718;SDS011;68046;53.334;9.538;2023-12-20T01:18:50;7.50;;;1.70;;
78718;SDS011;68046;53.334;9.538;2023-12-20T01:21:16;5.47;;;1.75;;
78718;SDS011;68046;53.334;9.538;2023-12-20T01:23:41;4.68;;;1.42;;
78718;SDS011;68046;53.334;9.538;2023-12-20T01:26:07;8.10;;;2.15;;
78718;SDS011;68046;53.334;9.538;2023-12-20T01:28:32;14.45;;;1.60;;
78718;SDS011;68046;53.334;9.538;2023-12-20T01:30:58;12.15;;;2.15;;
78718;SDS011;68046;53.334;9.538;2023-12-20T01:33:23;10.68;;;1.95;;
78718;SDS011;68046;53.334;9.538;2023-12-20T01:35:50;6.78;;;1.38;;
78718;SDS011;68046;53.334;9.538;2023-12-20T01:38:16;12.85;;;2.25;;
78718;SDS011;68046;53.334;9.538;2023-12-20T01:40:41;9.95;;;1.70;;
78718;SDS011;68046;53.334;9.538;2023-12-20T01:43:07;8.07;;;1.52;;
78718;SDS011;68046;53.334;9.538;2023-12-20T01:45:34;11.85;;;1.92;;
78718;SDS011;68046;53.334;9.538;2023-12-20T01:47:59;2.45;;;1.02;;
78718;SDS011;68046;53.334;9.538;2023-12-20T01:50:25;11.05;;;2.15;;
78718;SDS011;68046;53.334;9.538;2023-12-20T01:52:53;12.27;;;2.22;;
78718;SDS011;68046;53.334;9.538;2023-12-20T01:55:20;3.25;;;1.30;;
78718;SDS011;68046;53.334;9.538;2023-12-20T01:57:46;16.15;;;2.47;;
78718;SDS011;68046;53.334;9.538;2023-12-20T02:00:12;12.95;;;2.40;;
78718;SDS011;68046;53.334;9.538;2023-12-20T02:02:39;12.10;;;1.60;;
78718;SDS011;68046;53.334;9.538;2023-12-20T02:05:06;6.60;;;1.20;;
78718;SDS011;68046;53.334;9.538;2023-12-20T02:07:32;13.63;;;1.25;;
78718;SDS011;68046;53.334;9.538;2023-12-20T02:09:59;5.18;;;1.38;;
78718;SDS011;68046;53.334;9.538;2023-12-20T02:12:24;8.00;;;1.50;;
78718;SDS011;68046;53.334;9.538;2023-12-20T02:14:50;24.10;;;2.45;;
78718;SDS011;68046;53.334;9.538;2023-12-20T02:17:15;5.63;;;1.23;;
78718;SDS011;68046;53.334;9.538;2023-12-20T02:19:41;13.43;;;2.05;;
78718;SDS011;68046;53.334;9.538;2023-12-20T02:22:10;10.77;;;2.33;;
78718;SDS011;68046;53.334;9.538;2023-12-20T02:24:37;7.95;;;2.20;;
78718;SDS011;68046;53.334;9.538;2023-12-20T02:27:03;8.13;;;1.60;;
78718;SDS011;68046;53.334;9.538;2023-12-20T02:29:31;7.00;;;1.70;;
78718;SDS011;68046;53.334;9.538;2023-12-20T02:31:57;10.20;;;1.88;;
78718;SDS011;68046;53.334;9.538;2023-12-20T02:34:23;11.75;;;2.33;;
78718;SDS011;68046;53.334;9.538;2023-12-20T02:36:48;9.48;;;2.22;;
78718;SDS011;68046;53.334;9.538;2023-12-20T02:39:15;10.55;;;1.70;;
78718;SDS011;68046;53.334;9.538;2023-12-20T02:41:41;16.55;;;2.40;;
78718;SDS011;68046;53.334;9.538;2023-12-20T02:44:06;9.27;;;2.25;;
78718;SDS011;68046;53.334;9.538;2023-12-20T02:46:32;7.25;;;2.22;;
78718;SDS011;68046;53.334;9.538;2023-12-20T02:48:58;10.60;;;1.70;;
78718;SDS011;68046;53.334;9.538;2023-12-20T02:51:23;15.90;;;2.15;;
78718;SDS011;68046;53.334;9.538;2023-12-20T02:53:49;12.48;;;2.05;;
78718;SDS011;68046;53.334;9.538;2023-12-20T02:56:16;9.25;;;1.83;;
78718;SDS011;68046;53.334;9.538;2023-12-20T02:58:42;11.00;;;2.30;;
78718;SDS011;68046;53.334;9.538;2023-12-20T03:01:07;7.22;;;2.45;;
78718;SDS011;68046;53.334;9.538;2023-12-20T03:03:33;7.88;;;1.90;;
78718;SDS011;68046;53.334;9.538;2023-12-20T03:05:59;9.57;;;1.70;;
78718;SDS011;68046;53.334;9.538;2023-12-20T03:08:25;6.68;;;1.50;;
78718;SDS011;68046;53.334;9.538;2023-12-20T03:10:50;12.55;;;2.25;;
78718;SDS011;68046;53.334;9.538;2023-12-20T03:13:17;11.45;;;2.42;;
78718;SDS011;68046;53.334;9.538;2023-12-20T03:15:43;8.02;;;2.17;;
78718;SDS011;68046;53.334;9.538;2023-12-20T03:18:08;6.00;;;1.98;;
78718;SDS011;68046;53.334;9.538;2023-12-20T03:20:34;12.27;;;1.88;;
78718;SDS011;68046;53.334;9.538;2023-12-20T03:22:59;7.32;;;2.08;;
78718;SDS011;68046;53.334;9.538;2023-12-20T03:25:25;18.50;;;2.75;;
78718;SDS011;68046;53.334;9.538;2023-12-20T03:27:51;10.45;;;2.33;;
78718;SDS011;68046;53.334;9.538;2023-12-20T03:30:18;15.93;;;2.25;;
78718;SDS011;68046;53.334;9.538;2023-12-20T03:32:44;8.38;;;2.58;;
78718;SDS011;68046;53.334;9.538;2023-12-20T03:35:10;8.80;;;2.58;;
78718;SDS011;68046;53.334;9.538;2023-12-20T03:37:35;12.13;;;2.67;;
78718;SDS011;68046;53.334;9.538;2023-12-20T03:40:01;12.40;;;2.20;;
78718;SDS011;68046;53.334;9.538;2023-12-20T03:42:26;14.57;;;2.22;;
78718;SDS011;68046;53.334;9.538;2023-12-20T03:44:52;7.75;;;1.83;;
78718;SDS011;68046;53.334;9.538;2023-12-20T03:47:19;4.07;;;1.63;;
78718;SDS011;68046;53.334;9.538;2023-12-20T03:49:44;7.07;;;2.30;;
78718;SDS011;68046;53.334;9.538;2023-12-20T03:52:10;9.60;;;2.15;;
78718;SDS011;68046;53.334;9.538;2023-12-20T03:54:35;9.02;;;1.85;;
78718;SDS011;68046;53.334;9.538;2023-12-20T03:57:01;8.13;;;1.95;;
78718;SDS011;68046;53.334;9.538;2023-12-20T03:59:26;8.85;;;2.15;;
78718;SDS011;68046;53.334;9.538;2023-12-20T04:01:52;19.48;;;4.30;;
78718;SDS011;68046;53.334;9.538;2023-12-20T04:04:19;13.52;;;2.30;;
78718;SDS011;68046;53.334;9.538;2023-12-20T04:06:44;19.45;;;2.35;;
78718;SDS011;68046;53.334;9.538;2023-12-20T04:09:10;13.95;;;2.25;;
78718;SDS011;68046;53.334;9.538;2023-12-20T04:11:36;4.93;;;1.75;;
78718;SDS011;68046;53.334;9.538;2023-12-20T04:14:01;11.15;;;2.20;;
78718;SDS011;68046;53.334;9.538;2023-12-20T04:16:27;16.77;;;2.70;;
78718;SDS011;68046;53.334;9.538;2023-12-20T04:18:52;14.27;;;3.15;;
78718;SDS011;68046;53.334;9.538;2023-12-20T04:21:19;11.13;;;2.75;;
78718;SDS011;68046;53.334;9.538;2023-12-20T04:23:45;10.35;;;3.42;;
78718;SDS011;68046;53.334;9.538;2023-12-20T04:26:10;11.88;;;2.85;;
78718;SDS011;68046;53.334;9.538;2023-12-20T04:28:36;12.13;;;3.13;;
78718;SDS011;68046;53.334;9.538;2023-12-20T04:31:01;11.55;;;3.50;;
78718;SDS011;68046;53.334;9.538;2023-12-20T04:33:27;16.33;;;2.40;;
78718;SDS011;68046;53.334;9.538;2023-12-20T04:35:53;14.52;;;3.22;;
78718;SDS011;68046;53.334;9.538;2023-12-20T04:38:19;15.00;;;3.97;;
78718;SDS011;68046;53.334;9.538;2023-12-20T04:40:45;18.90;;;4.00;;
78718;SDS011;68046;53.334;9.538;2023-12-20T04:43:10;14.13;;;3.05;;
78718;SDS011;68046;53.334;9.538;2023-12-20T04:45:36;12.35;;;3.05;;
78718;SDS011;68046;53.334;9.538;2023-12-20T04:48:02;11.40;;;3.13;;
78718;SDS011;68046;53.334;9.538;2023-12-20T04:50:27;10.95;;;3.13;;
78718;SDS011;68046;53.334;9.538;2023-12-20T04:52:53;8.73;;;2.92;;
78718;SDS011;68046;53.334;9.538;2023-12-20T04:55:20;14.73;;;3.08;;
78718;SDS011;68046;53.334;9.538;2023-12-20T04:57:45;10.00;;;3.22;;
78718;SDS011;68046;53.334;9.538;2023-12-20T05:00:11;7.68;;;2.67;;
78718;SDS011;68046;53.334;9.538;2023-12-20T05:02:37;13.65;;;2.97;;
78718;SDS011;68046;53.334;9.538;2023-12-20T05:05:03;7.25;;;2.60;;
78718;SDS011;68046;53.334;9.538;2023-12-20T05:07:29;12.55;;;3.58;;
78718;SDS011;68046;53.334;9.538;2023-12-20T05:09:54;14.65;;;3.40;;
78718;SDS011;68046;53.334;9.538;2023-12-20T05:12:21;8.73;;;2.95;;
78718;SDS011;68046;53.334;9.538;2023-12-20T05:14:47;8.68;;;3.35;;
78718;SDS011;68046;53.334;9.538;2023-12-20T05:17:13;11.52;;;3.78;;
78718;SDS011;68046;53.334;9.538;2023-12-20T05:19:38;7.75;;;3.13;;
78718;SDS011;68046;53.334;9.538;2023-12-20T05:22:03;16.25;;;3.47;;
78718;SDS011;68046;53.334;9.538;2023-12-20T05:24:29;5.60;;;2.90;;
78718;SDS011;68046;53.334;9.538;2023-12-20T05:26:55;13.98;;;3.72;;
78718;SDS011;68046;53.334;9.538;2023-12-20T05:29:21;10.18;;;3.33;;
78718;SDS011;68046;53.334;9.538;2023-12-20T05:31:47;10.70;;;2.65;;
78718;SDS011;68046;53.334;9.538;2023-12-20T05:34:13;11.27;;;3.55;;
78718;SDS011;68046;53.334;9.538;2023-12-20T05:36:38;19.85;;;4.15;;
78718;SDS011;68046;53.334;9.538;2023-12-20T05:39:04;10.57;;;3.00;;
78718;SDS011;68046;53.334;9.538;2023-12-20T05:41:29;13.27;;;3.63;;
78718;SDS011;68046;53.334;9.538;2023-12-20T05:43:55;14.63;;;3.65;;
78718;SDS011;68046;53.334;9.538;2023-12-20T05:46:22;12.90;;;2.47;;
78718;SDS011;68046;53.334;9.538;2023-12-20T05:48:47;14.43;;;3.38;;
78718;SDS011;68046;53.334;9.538;2023-12-20T05:51:13;15.23;;;3.50;;
78718;SDS011;68046;53.334;9.538;2023-12-20T05:53:38;13.65;;;2.63;;
78718;SDS011;68046;53.334;9.538;2023-12-20T05:56:04;10.82;;;3.38;;
78718;SDS011;68046;53.334;9.538;2023-12-20T05:58:30;9.80;;;2.40;;
78718;SDS011;68046;53.334;9.538;2023-12-20T06:00:57;14.63;;;3.67;;
78718;SDS011;68046;53.334;9.538;2023-12-20T06:03:24;9.23;;;2.67;;
78718;SDS011;68046;53.334;9.538;2023-12-20T06:05:49;9.65;;;2.75;;
78718;SDS011;68046;53.334;9.538;2023-12-20T06:08:15;13.00;;;2.80;;
78718;SDS011;68046;53.334;9.538;2023-12-20T06:10:40;11.30;;;2.83;;
78718;SDS011;68046;53.334;9.538;2023-12-20T06:13:06;13.32;;;2.75;;
78718;SDS011;68046;53.334;9.538;2023-12-20T06:15:31;8.38;;;2.25;;
78718;SDS011;68046;53.334;9.538;2023-12-20T06:17:57;16.23;;;3.75;;
78718;SDS011;68046;53.334;9.538;2023-12-20T06:20:24;14.15;;;3.30;;
78718;SDS011;68046;53.334;9.538;2023-12-20T06:22:49;11.30;;;3.45;;
78718;SDS011;68046;53.334;9.538;2023-12-20T06:25:15;16.60;;;3.95;;
78718;SDS011;68046;53.334;9.538;2023-12-20T06:27:41;14.15;;;3.10;;
78718;SDS011;68046;53.334;9.538;2023-12-20T06:30:07;15.38;;;3.38;;
78718;SDS011;68046;53.334;9.538;2023-12-20T06:32:33;20.15;;;3.47;;
78718;SDS011;68046;53.334;9.538;2023-12-20T06:34:59;7.10;;;2.67;;
78718;SDS011;68046;53.334;9.538;2023-12-20T06:37:26;10.10;;;2.92;;
78718;SDS011;68046;53.334;9.538;2023-12-20T06:39:51;14.25;;;2.97;;
78718;SDS011;68046;53.334;9.538;2023-12-20T06:42:17;20.27;;;3.97;;
78718;SDS011;68046;53.334;9.538;2023-12-20T06:44:42;16.05;;;3.05;;
78718;SDS011;68046;53.334;9.538;2023-12-20T06:47:08;13.35;;;3.95;;
78718;SDS011;68046;53.334;9.538;2023-12-20T06:49:33;8.43;;;3.13;;
78718;SDS011;68046;53.334;9.538;2023-12-20T06:51:59;14.07;;;2.88;;
78718;SDS011;68046;53.334;9.538;2023-12-20T06:54:26;18.92;;;2.67;;
78718;SDS011;68046;53.334;9.538;2023-12-20T06:56:51;15.25;;;3.40;;
78718;SDS011;68046;53.334;9.538;2023-12-20T06:59:17;8.65;;;3.13;;
78718;SDS011;68046;53.334;9.538;2023-12-20T07:01:42;14.25;;;2.55;;
78718;SDS011;68046;53.334;9.538;2023-12-20T07:04:13;10.55;;;2.83;;
78718;SDS011;68046;53.334;9.538;2023-12-20T07:06:38;19.98;;;2.45;;
78718;SDS011;68046;53.334;9.538;2023-12-20T07:09:04;15.63;;;2.80;;
78718;SDS011;68046;53.334;9.538;2023-12-20T07:11:30;25.77;;;3.20;;
78718;SDS011;68046;53.334;9.538;2023-12-20T07:13:56;20.77;;;2.72;;
78718;SDS011;68046;53.334;9.538;2023-12-20T07:16:21;11.07;;;2.88;;
78718;SDS011;68046;53.334;9.538;2023-12-20T07:18:47;12.38;;;3.00;;
78718;SDS011;68046;53.334;9.538;2023-12-20T07:21:12;12.60;;;2.63;;
78718;SDS011;68046;53.334;9.538;2023-12-20T07:23:38;13.15;;;3.13;;
78718;SDS011;68046;53.334;9.538;2023-12-20T07:26:03;11.30;;;3.17;;
78718;SDS011;68046;53.334;9.538;2023-12-20T07:28:31;7.13;;;2.00;;
78718;SDS011;68046;53.334;9.538;2023-12-20T07:30:56;14.82;;;3.85;;
78718;SDS011;68046;53.334;9.538;2023-12-20T07:33:21;18.63;;;3.45;;
78718;SDS011;68046;53.334;9.538;2023-12-20T07:35:47;20.48;;;4.30;;
78718;SDS011;68046;53.334;9.538;2023-12-20T07:38:12;16.10;;;3.25;;
78718;SDS011;68046;53.334;9.538;2023-12-20T07:40:38;22.92;;;3.25;;
78718;SDS011;68046;53.334;9.538;2023-12-20T07:43:04;9.82;;;2.30;;
78718;SDS011;68046;53.334;9.538;2023-12-20T07:45:31;16.88;;;2.80;;
78718;SDS011;68046;53.334;9.538;2023-12-20T07:47:56;19.98;;;3.80;;
78718;SDS011;68046;53.334;9.538;2023-12-20T07:50:22;17.58;;;2.88;;
78718;SDS011;68046;53.334;9.538;2023-12-20T07:52:47;19.20;;;3.60;;
78718;SDS011;68046;53.334;9.538;2023-12-20T07:55:13;11.90;;;3.70;;
78718;SDS011;68046;53.334;9.538;2023-12-20T07:57:38;18.77;;;3.50;;
78718;SDS011;68046;53.334;9.538;2023-12-20T08:00:04;15.52;;;3.72;;
78718;SDS011;68046;53.334;9.538;2023-12-20T08:02:32;17.55;;;3.60;;
78718;SDS011;68046;53.334;9.538;2023-12-20T08:04:57;13.57;;;3.35;;
78718;SDS011;68046;53.334;9.538;2023-12-20T08:07:23;15.20;;;3.83;;
78718;SDS011;68046;53.334;9.538;2023-12-20T08:09:48;21.35;;;3.22;;
78718;SDS011;68046;53.334;9.538;2023-12-20T08:12:14;13.40;;;2.97;;
78718;SDS011;68046;53.334;9.538;2023-12-20T08:14:39;11.50;;;2.58;;
78718;SDS011;68046;53.334;9.538;2023-12-20T08:17:05;14.85;;;3.45;;
78718;SDS011;68046;53.334;9.538;2023-12-20T08:19:32;16.80;;;3.58;;
78718;SDS011;68046;53.334;9.538;2023-12-20T08:21:57;18.35;;;3.17;;
78718;SDS011;68046;53.334;9.538;2023-12-20T08:24:23;14.65;;;2.70;;
78718;SDS011;68046;53.334;9.538;2023-12-20T08:26:48;13.43;;;2.83;;
78718;SDS011;68046;53.334;9.538;2023-12-20T08:29:14;18.55;;;3.42;;
78718;SDS011;68046;53.334;9.538;2023-12-20T08:31:39;11.77;;;3.40;;
78718;SDS011;68046;53.334;9.538;2023-12-20T08:34:05;15.68;;;3.58;;
78718;SDS011;68046;53.334;9.538;2023-12-20T08:36:32;19.05;;;3.42;;
78718;SDS011;68046;53.334;9.538;2023-12-20T08:38:57;15.23;;;3.28;;
78718;SDS011;68046;53.334;9.538;2023-12-20T08:41:23;11.32;;;3.20;;
78718;SDS011;68046;53.334;9.538;2023-12-20T08:43:48;14.25;;;2.85;;
78718;SDS011;68046;53.334;9.538;2023-12-20T08:46:14;10.85;;;3.92;;
78718;SDS011;68046;53.334;9.538;2023-12-20T08:48:40;21.20;;;3.38;;
78718;SDS011;68046;53.334;9.538;2023-12-20T08:51:05;10.57;;;2.67;;
78718;SDS011;68046;53.334;9.538;2023-12-20T08:53:32;22.90;;;3.78;;
78718;SDS011;68046;53.334;9.538;2023-12-20T08:55:58;10.55;;;3.97;;
78718;SDS011;68046;53.334;9.538;2023-12-20T08:58:23;17.40;;;3.45;;
78718;SDS011;68046;53.334;9.538;2023-12-20T09:00:49;19.70;;;4.35;;
78718;SDS011;68046;53.334;9.538;2023-12-20T09:03:14;12.38;;;3.03;;
78718;SDS011;68046;53.334;9.538;2023-12-20T09:05:40;14.90;;;4.32;;
78718;SDS011;68046;53.334;9.538;2023-12-20T09:08:06;19.48;;;4.13;;
78718;SDS011;68046;53.334;9.538;2023-12-20T09:10:33;11.07;;;3.28;;
78718;SDS011;68046;53.334;9.538;2023-12-20T09:12:58;13.02;;;3.35;;
78718;SDS011;68046;53.334;9.538;2023-12-20T09:15:24;13.07;;;3.30;;
78718;SDS011;68046;53.334;9.538;2023-12-20T09:17:50;11.35;;;2.72;;
78718;SDS011;68046;53.334;9.538;2023-12-20T09:20:16;12.85;;;4.35;;
78718;SDS011;68046;53.334;9.538;2023-12-20T09:22:41;14.63;;;3.70;;
78718;SDS011;68046;53.334;9.538;2023-12-20T09:25:07;11.68;;;2.78;;
78718;SDS011;68046;53.334;9.538;2023-12-20T09:27:34;19.23;;;3.42;;
78718;SDS011;68046;53.334;9.538;2023-12-20T09:30:00;10.07;;;1.95;;
78718;SDS011;68046;53.334;9.538;2023-12-20T09:32:25;1.80;;;0.90;;
78718;SDS011;68046;53.334;9.538;2023-12-20T09:34:51;3.92;;;1.15;;
78718;SDS011;68046;53.334;9.538;2023-12-20T09:37:16;2.80;;;0.93;;
78718;SDS011;68046;53.334;9.538;2023-12-20T09:39:42;0.73;;;0.45;;
78718;SDS011;68046;53.334;9.538;2023-12-20T09:42:07;0.82;;;0.45;;
78718;SDS011;68046;53.334;9.538;2023-12-20T09:44:38;2.92;;;0.47;;
78718;SDS011;68046;53.334;9.538;2023-12-20T09:47:03;0.75;;;0.40;;
78718;SDS011;68046;53.334;9.538;2023-12-20T09:49:30;6.22;;;1.35;;
78718;SDS011;68046;53.334;9.538;2023-12-20T09:51:56;0.93;;;0.50;;
78718;SDS011;68046;53.334;9.538;2023-12-20T09:54:22;0.38;;;0.32;;
78718;SDS011;68046;53.334;9.538;2023-12-20T09:56:48;1.00;;;0.30;;
78718;SDS011;68046;53.334;9.538;2023-12-20T09:59:15;2.75;;;0.70;;
78718;SDS011;68046;53.334;9.538;2023-12-20T10:01:42;4.00;;;0.57;;
78718;SDS011;68046;53.334;9.538;2023-12-20T10:04:08;3.05;;;0.65;;
78718;SDS011;68046;53.334;9.538;2023-12-20T10:06:35;4.90;;;0.50;;
78718;SDS011;68046;53.334;9.538;2023-12-20T10:09:01;9.80;;;0.82;;
78718;SDS011;68046;53.334;9.538;2023-12-20T10:11:27;1.45;;;0.85;;
78718;SDS011;68046;53.334;9.538;2023-12-20T10:13:52;4.53;;;0.47;;
78718;SDS011;68046;53.334;9.538;2023-12-20T10:16:24;1.60;;;0.73;;
78718;SDS011;68046;53.334;9.538;2023-12-20T10:18:51;0.95;;;0.50;;
78718;SDS011;68046;53.334;9.538;2023-12-20T10:21:17;2.03;;;0.63;;
78718;SDS011;68046;53.334;9.538;2023-12-20T10:23:43;4.18;;;0.75;;
78718;SDS011;68046;53.334;9.538;2023-12-20T10:26:09;4.03;;;0.93;;
78718;SDS011;68046;53.334;9.538;2023-12-20T10:28:34;7.03;;;1.02;;
78718;SDS011;68046;53.334;9.538;2023-12-20T10:31:00;4.30;;;1.10;;
78718;SDS011;68046;53.334;9.538;2023-12-20T10:33:25;4.80;;;0.95;;
78718;SDS011;68046;53.334;9.538;2023-12-20T10:35:55;4.47;;;0.73;;
78718;SDS011;68046;53.334;9.538;2023-12-20T10:38:21;5.95;;;1.38;;
78718;SDS011;68046;53.334;9.538;2023-12-20T10:40:46;5.00;;;1.35;;
78718;SDS011;68046;53.334;9.538;2023-12-20T10:43:12;8.60;;;1.90;;
78718;SDS011;68046;53.334;9.538;2023-12-20T10:45:37;9.90;;;1.63;;
78718;SDS011;68046;53.334;9.538;2023-12-20T10:48:03;5.68;;;0.95;;
78718;SDS011;68046;53.334;9.538;2023-12-20T10:50:30;5.72;;;1.52;;
78718;SDS011;68046;53.334;9.538;2023-12-20T10:52:58;4.38;;;1.02;;
78718;SDS011;68046;53.334;9.538;2023-12-20T10:55:24;8.85;;;1.52;;
78718;SDS011;68046;53.334;9.538;2023-12-20T10:57:50;6.25;;;1.25;;
78718;SDS011;68046;53.334;9.538;2023-12-20T11:00:17;6.78;;;1.13;;
78718;SDS011;68046;53.334;9.538;2023-12-20T11:02:44;2.97;;;0.90;;
78718;SDS011;68046;53.334;9.538;2023-12-20T11:05:10;2.38;;;1.23;;
78718;SDS011;68046;53.334;9.538;2023-12-20T11:07:46;3.90;;;0.95;;
78718;SDS011;68046;53.334;9.538;2023-12-20T11:10:16;8.32;;;2.25;;
78718;SDS011;68046;53.334;9.538;2023-12-20T11:12:47;4.63;;;1.25;;
78718;SDS011;68046;53.334;9.538;2023-12-20T11:15:17;5.85;;;1.17;;
78718;SDS011;68046;53.334;9.538;2023-12-20T11:17:44;2.95;;;1.17;;
78718;SDS011;68046;53.334;9.538;2023-12-20T11:20:10;3.25;;;1.38;;
78718;SDS011;68046;53.334;9.538;2023-12-20T11:22:36;8.57;;;1.33;;
78718;SDS011;68046;53.334;9.538;2023-12-20T11:25:03;2.80;;;1.42;;
78718;SDS011;68046;53.334;9.538;2023-12-20T11:27:31;4.18;;;0.80;;
78718;SDS011;68046;53.334;9.538;2023-12-20T11:29:57;2.58;;;1.08;;
78718;SDS011;68046;53.334;9.538;2023-12-20T11:32:33;6.40;;;1.52;;
78718;SDS011;68046;53.334;9.538;2023-12-20T11:35:00;3.40;;;0.82;;
78718;SDS011;68046;53.334;9.538;2023-12-20T11:37:29;14.60;;;1.52;;
78718;SDS011;68046;53.334;9.538;2023-12-20T11:39:55;9.68;;;1.48;;
78718;SDS011;68046;53.334;9.538;2023-12-20T11:42:20;12.63;;;1.42;;
78718;SDS011;68046;53.334;9.538;2023-12-20T11:44:47;1.70;;;0.70;;
78718;SDS011;68046;53.334;9.538;2023-12-20T11:47:13;9.32;;;2.03;;
78718;SDS011;68046;53.334;9.538;2023-12-20T11:49:38;2.47;;;0.88;;
78718;SDS011;68046;53.334;9.538;2023-12-20T11:52:04;11.40;;;2.28;;
78718;SDS011;68046;53.334;9.538;2023-12-20T11:54:30;6.03;;;1.08;;
78718;SDS011;68046;53.334;9.538;2023-12-20T11:56:56;8.07;;;1.85;;
78718;SDS011;68046;53.334;9.538;2023-12-20T11:59:21;6.65;;;1.75;;
78718;SDS011;68046;53.334;9.538;2023-12-20T12:01:51;4.00;;;1.08;;
78718;SDS011;68046;53.334;9.538;2023-12-20T12:04:17;7.57;;;1.80;;
78718;SDS011;68046;53.334;9.538;2023-12-20T12:06:42;8.52;;;2.00;;
78718;SDS011;68046;53.334;9.538;2023-12-20T12:09:08;8.68;;;1.63;;
78718;SDS011;68046;53.334;9.538;2023-12-20T12:11:33;5.88;;;1.20;;
78718;SDS011;68046;53.334;9.538;2023-12-20T12:13:59;3.13;;;0.65;;
78718;SDS011;68046;53.334;9.538;2023-12-20T12:16:25;4.75;;;1.27;;
78718;SDS011;68046;53.334;9.538;2023-12-20T12:18:58;4.05;;;1.60;;
78718;SDS011;68046;53.334;9.538;2023-12-20T12:21:24;2.60;;;0.63;;
78718;SDS011;68046;53.334;9.538;2023-12-20T12:23:49;4.30;;;1.15;;
78718;SDS011;68046;53.334;9.538;2023-12-20T12:26:15;1.63;;;0.93;;
78718;SDS011;68046;53.334;9.538;2023-12-20T12:28:41;12.75;;;1.80;;
78718;SDS011;68046;53.334;9.538;2023-12-20T12:31:07;5.22;;;1.38;;
78718;SDS011;68046;53.334;9.538;2023-12-20T12:33:33;3.10;;;1.30;;
78718;SDS011;68046;53.334;9.538;2023-12-20T12:36:00;5.38;;;1.45;;
78718;SDS011;68046;53.334;9.538;2023-12-20T12:38:25;4.90;;;1.20;;
78718;SDS011;68046;53.334;9.538;2023-12-20T12:40:51;11.25;;;1.65;;
78718;SDS011;68046;53.334;9.538;2023-12-20T12:43:17;9.38;;;1.77;;
78718;SDS011;68046;53.334;9.538;2023-12-20T12:45:42;10.65;;;1.63;;
78718;SDS011;68046;53.334;9.538;2023-12-20T12:48:08;15.13;;;2.10;;
78718;SDS011;68046;53.334;9.538;2023-12-20T12:50:33;16.15;;;2.00;;
78718;SDS011;68046;53.334;9.538;2023-12-20T12:53:00;8.25;;;1.77;;
78718;SDS011;68046;53.334;9.538;2023-12-20T12:55:26;3.13;;;1.02;;
78718;SDS011;68046;53.334;9.538;2023-12-20T12:57:51;13.10;;;2.20;;
78718;SDS011;68046;53.334;9.538;2023-12-20T13:00:17;9.15;;;1.60;;
78718;SDS011;68046;53.334;9.538;2023-12-20T13:02:43;16.55;;;1.75;;
78718;SDS011;68046;53.334;9.538;2023-12-20T13:05:08;10.95;;;1.92;;
78718;SDS011;68046;53.334;9.538;2023-12-20T13:07:34;15.57;;;1.80;;
78718;SDS011;68046;53.334;9.538;2023-12-20T13:10:01;7.90;;;1.92;;
78718;SDS011;68046;53.334;9.538;2023-12-20T13:12:27;17.35;;;2.50;;
78718;SDS011;68046;53.334;9.538;2023-12-20T13:14:52;9.57;;;1.42;;
78718;SDS011;68046;53.334;9.538;2023-12-20T13:17:18;12.02;;;2.00;;
78718;SDS011;68046;53.334;9.538;2023-12-20T13:19:43;10.90;;;2.03;;
78718;SDS011;68046;53.334;9.538;2023-12-20T13:22:09;13.15;;;3.05;;
78718;SDS011;68046;53.334;9.538;2023-12-20T13:24:34;14.00;;;2.47;;
78718;SDS011;68046;53.334;9.538;2023-12-20T13:27:01;18.42;;;2.90;;
78718;SDS011;68046;53.334;9.538;2023-12-20T13:29:27;18.17;;;3.33;;
78718;SDS011;68046;53.334;9.538;2023-12-20T13:31:52;8.38;;;2.85;;
78718;SDS011;68046;53.334;9.538;2023-12-20T13:34:18;6.50;;;2.25;;
78718;SDS011;68046;53.334;9.538;2023-12-20T13:36:44;9.18;;;2.22;;
78718;SDS011;68046;53.334;9.538;2023-12-20T13:39:09;14.88;;;2.00;;
78718;SDS011;68046;53.334;9.538;2023-12-20T13:41:35;10.80;;;2.63;;
78718;SDS011;68046;53.334;9.538;2023-12-20T13:44:01;15.68;;;2.47;;
78718;SDS011;68046;53.334;9.538;2023-12-20T13:46:27;15.93;;;2.42;;
78718;SDS011;68046;53.334;9.538;2023-12-20T13:48:52;13.95;;;2.40;;
78718;SDS011;68046;53.334;9.538;2023-12-20T13:51:18;17.60;;;3.40;;
78718;SDS011;68046;53.334;9.538;2023-12-20T13:53:43;10.18;;;2.30;;
78718;SDS011;68046;53.334;9.538;2023-12-20T13:56:09;15.60;;;2.90;;
78718;SDS011;68046;53.334;9.538;2023-12-20T13:58:34;12.10;;;2.67;;
78718;SDS011;68046;53.334;9.538;2023-12-20T14:01:01;9.75;;;2.20;;
78718;SDS011;68046;53.334;9.538;2023-12-20T14:03:27;15.10;;;2.47;;
78718;SDS011;68046;53.334;9.538;2023-12-20T14:05:52;9.73;;;2.08;;
78718;SDS011;68046;53.334;9.538;2023-12-20T14:08:18;14.85;;;2.45;;
78718;SDS011;68046;53.334;9.538;2023-12-20T14:10:43;17.55;;;2.38;;
78718;SDS011;68046;53.334;9.538;2023-12-20T14:13:09;15.13;;;2.50;;
78718;SDS011;68046;53.334;9.538;2023-12-20T14:15:35;13.82;;;2.22;;
78718;SDS011;68046;53.334;9.538;2023-12-20T14:18:02;20.17;;;2.55;;
78718;SDS011;68046;53.334;9.538;2023-12-20T14:20:28;22.58;;;3.85;;
78718;SDS011;68046;53.334;9.538;2023-12-20T14:22:54;15.27;;;2.88;;
78718;SDS011;68046;53.334;9.538;2023-12-20T14:25:19;14.43;;;2.35;;
78718;SDS011;68046;53.334;9.538;2023-12-20T14:27:45;16.65;;;1.92;;
78718;SDS011;68046;53.334;9.538;2023-12-20T14:30:10;14.88;;;2.28;;
78718;SDS011;68046;53.334;9.538;2023-12-20T14:32:36;17.98;;;2.42;;